Time;durP1;ratioP1;P1;durP2;ratioP2;P2;SDS_P1;SDS_P2;PMS_P1;PMS_P2;Temp;Humidity;BMP_temperature;BMP_pressure;BME280_temperature;BME280_humidity;BME280_pressure;Samples;Min_cycle;Max_cycle;Signal;HPM_P1;HPM_P2
2021/11/29 00:00:14;;;;;;;23.02;13.65;;;1.30;99.90;;;;;;5026674;28;20068;-70
2021/11/29 00:03:19;;;;;;;37.65;17.92;;;1.40;99.90;;;;;;5028030;28;20048;-70
2021/11/29 00:06:23;;;;;;;28.30;14.48;;;1.40;99.90;;;;;;5034765;28;20056;-70
2021/11/29 00:09:27;;;;;;;21.63;13.73;;;1.50;99.90;;;;;;5030846;28;20044;-70
2021/11/29 00:12:32;;;;;;;23.65;13.70;;;1.60;99.90;;;;;;5029469;28;20060;-70
2021/11/29 00:15:36;;;;;;;25.20;14.10;;;1.60;99.90;;;;;;5030482;28;20507;-70
2021/11/29 00:18:41;;;;;;;23.83;12.45;;;1.50;99.90;;;;;;5030178;28;20047;-70
2021/11/29 00:21:45;;;;;;;17.65;10.75;;;1.50;99.90;;;;;;5031399;28;20048;-70
2021/11/29 00:24:49;;;;;;;19.98;11.30;;;1.50;99.90;;;;;;5034087;28;20056;-70
2021/11/29 00:27:53;;;;;;;18.50;11.70;;;1.50;99.90;;;;;;5034255;28;20052;-70
2021/11/29 00:30:57;;;;;;;17.38;9.75;;;1.60;99.90;;;;;;5034142;28;20052;-70
2021/11/29 00:34:02;;;;;;;21.00;11.13;;;1.60;99.90;;;;;;5033289;28;20040;-70
2021/11/29 00:37:05;;;;;;;123.78;50.63;;;1.60;99.90;;;;;;5033876;28;20040;-70
2021/11/29 00:40:10;;;;;;;89.75;39.13;;;1.60;99.90;;;;;;5031412;28;21553;-70
2021/11/29 00:43:14;;;;;;;20.92;12.63;;;1.60;99.90;;;;;;5028052;28;20048;-70
2021/11/29 00:46:18;;;;;;;22.25;13.00;;;1.50;99.90;;;;;;5027367;28;20045;-70
2021/11/29 00:49:22;;;;;;;20.90;12.98;;;1.60;99.90;;;;;;5027128;28;20036;-70
2021/11/29 00:52:26;;;;;;;17.75;10.55;;;1.60;99.90;;;;;;5033821;28;20045;-70
2021/11/29 00:55:30;;;;;;;13.90;8.35;;;1.60;99.90;;;;;;5031075;28;20064;-70
2021/11/29 00:58:34;;;;;;;15.00;10.45;;;1.60;99.90;;;;;;5028666;28;20044;-70
2021/11/29 01:01:38;;;;;;;12.48;7.32;;;1.60;99.90;;;;;;5029816;28;20040;-70
2021/11/29 01:04:43;;;;;;;12.45;7.05;;;1.70;99.90;;;;;;5030006;28;20041;-70
2021/11/29 01:07:47;;;;;;;13.50;6.93;;;1.70;99.90;;;;;;5030700;28;20048;-70
2021/11/29 01:10:51;;;;;;;11.55;6.80;;;1.80;99.90;;;;;;5033736;28;20045;-70
2021/11/29 01:13:55;;;;;;;10.13;6.38;;;1.80;99.90;;;;;;5033392;28;20048;-70
2021/11/29 01:16:59;;;;;;;14.85;7.32;;;2.00;99.90;;;;;;5033368;28;20690;-70
2021/11/29 01:20:10;;;;;;;11.90;6.75;;;2.00;99.90;;;;;;5042696;28;20060;-70
2021/11/29 01:23:16;;;;;;;14.80;7.20;;;2.00;99.90;;;;;;5033354;28;20519;-70
2021/11/29 01:26:20;;;;;;;12.35;6.60;;;2.10;99.90;;;;;;5032205;28;20408;-70
2021/11/29 01:29:25;;;;;;;12.48;6.40;;;2.10;99.90;;;;;;5032163;28;20056;-70
2021/11/29 01:32:29;;;;;;;10.70;5.28;;;2.10;99.90;;;;;;5028043;28;20044;-70
2021/11/29 01:35:33;;;;;;;8.85;4.88;;;2.20;99.90;;;;;;5032886;28;20041;-70
2021/11/29 01:38:38;;;;;;;9.02;5.30;;;2.30;99.90;;;;;;5028468;28;20353;-70
2021/11/29 01:41:44;;;;;;;19.15;9.05;;;2.40;99.90;;;;;;5029014;28;20041;-70
2021/11/29 01:44:48;;;;;;;13.00;6.28;;;2.40;99.90;;;;;;5028746;28;20052;-70
2021/11/29 01:47:52;;;;;;;15.48;6.95;;;2.30;99.90;;;;;;5031627;28;20053;-70
2021/11/29 01:50:58;;;;;;;8.57;5.65;;;2.30;99.90;;;;;;5030824;28;20503;-70
2021/11/29 01:54:03;;;;;;;12.20;5.60;;;2.30;99.90;;;;;;5032632;28;20037;-70
2021/11/29 01:57:07;;;;;;;13.02;5.80;;;2.30;99.90;;;;;;5032619;28;20542;-70
2021/11/29 02:00:17;;;;;;;12.40;5.97;;;2.30;99.90;;;;;;5028806;28;20060;-70
2021/11/29 02:03:25;;;;;;;13.48;5.60;;;2.30;99.90;;;;;;5027288;28;20048;-70
2021/11/29 02:06:31;;;;;;;10.77;4.90;;;2.30;99.90;;;;;;5027452;28;20043;-70
2021/11/29 02:09:35;;;;;;;8.70;4.47;;;2.40;99.90;;;;;;5031742;28;20048;-70
2021/11/29 02:12:40;;;;;;;10.27;5.22;;;2.40;99.90;;;;;;5027974;28;20041;-70
2021/11/29 02:15:50;;;;;;;16.52;7.30;;;2.40;99.90;;;;;;5030440;28;20054;-70
2021/11/29 02:18:54;;;;;;;10.57;5.80;;;2.30;99.90;;;;;;5031465;28;20036;-70
2021/11/29 02:21:58;;;;;;;19.90;8.82;;;2.30;99.90;;;;;;5032267;28;20049;-70
2021/11/29 02:25:04;;;;;;;9.85;5.05;;;2.30;99.90;;;;;;5031610;28;20056;-70
2021/11/29 02:28:08;;;;;;;6.10;3.88;;;2.30;99.90;;;;;;5031267;28;20033;-70
2021/11/29 02:31:15;;;;;;;11.57;4.05;;;2.40;99.90;;;;;;5031453;28;20029;-70
2021/11/29 02:34:22;;;;;;;8.95;4.82;;;2.50;99.90;;;;;;5029171;28;20061;-70
2021/11/29 02:37:26;;;;;;;9.63;3.80;;;2.60;99.90;;;;;;5026948;28;20041;-70
2021/11/29 02:40:30;;;;;;;9.00;3.90;;;2.70;99.90;;;;;;5026840;28;20049;-71
2021/11/29 02:43:35;;;;;;;6.47;3.65;;;2.70;99.90;;;;;;5027510;28;20041;-70
2021/11/29 02:46:40;;;;;;;9.95;4.07;;;2.60;99.90;;;;;;5027674;28;20037;-70
2021/11/29 02:49:44;;;;;;;7.30;3.60;;;2.60;99.90;;;;;;5029023;28;20481;-70
2021/11/29 02:52:49;;;;;;;6.32;3.70;;;2.60;99.90;;;;;;5031632;28;20366;-70
2021/11/29 02:55:54;;;;;;;7.32;4.22;;;2.60;99.90;;;;;;5031515;28;20030;-70
2021/11/29 02:58:58;;;;;;;7.07;3.78;;;2.60;99.90;;;;;;5029996;28;20033;-70
2021/11/29 03:02:06;;;;;;;9.45;4.13;;;2.60;99.90;;;;;;5030857;28;20049;-70
2021/11/29 03:05:10;;;;;;;12.07;5.10;;;2.60;99.90;;;;;;5029280;28;20033;-70
2021/11/29 03:08:14;;;;;;;11.95;5.07;;;2.60;99.90;;;;;;5026218;28;20040;-71
2021/11/29 03:11:18;;;;;;;13.13;7.45;;;2.70;99.90;;;;;;5024930;28;20040;-70
2021/11/29 03:14:23;;;;;;;19.38;10.38;;;2.30;99.90;;;;;;5025463;28;20036;-70
2021/11/29 03:17:26;;;;;;;15.32;9.98;;;1.90;99.90;;;;;;5026070;28;20487;-70
2021/11/29 03:20:30;;;;;;;17.45;9.52;;;1.90;99.90;;;;;;5028811;28;20053;-70
2021/11/29 03:23:36;;;;;;;18.38;9.07;;;1.90;99.90;;;;;;5027129;28;20048;-70
2021/11/29 03:26:41;;;;;;;17.95;10.55;;;1.90;99.90;;;;;;5030577;28;20431;-70
2021/11/29 03:29:50;;;;;;;16.58;9.32;;;2.00;99.90;;;;;;5030401;28;20048;-71
2021/11/29 03:32:55;;;;;;;16.92;10.45;;;2.00;99.90;;;;;;5031820;28;20044;-70
2021/11/29 03:36:02;;;;;;;18.30;10.80;;;1.90;99.90;;;;;;5034004;28;20056;-70
2021/11/29 03:39:10;;;;;;;24.13;11.38;;;1.90;99.90;;;;;;5033353;28;20040;-70
2021/11/29 03:42:14;;;;;;;17.90;10.20;;;1.90;99.90;;;;;;5025578;28;20052;-70
2021/11/29 03:45:18;;;;;;;15.88;8.63;;;2.00;99.90;;;;;;5033807;28;20037;-71
2021/11/29 03:48:23;;;;;;;18.48;8.27;;;2.00;99.90;;;;;;5032787;28;20036;-70
2021/11/29 03:51:27;;;;;;;21.55;8.85;;;2.10;99.90;;;;;;5030594;28;20763;-70
2021/11/29 03:54:32;;;;;;;14.23;8.43;;;2.10;99.90;;;;;;5028883;28;20040;-71
2021/11/29 03:57:37;;;;;;;15.13;8.55;;;2.10;99.90;;;;;;5029665;28;20049;-70
2021/11/29 04:00:41;;;;;;;13.27;7.93;;;2.20;99.90;;;;;;5030120;28;20052;-71
2021/11/29 04:03:45;;;;;;;14.25;7.60;;;2.10;99.90;;;;;;5030648;28;20056;-70
2021/11/29 04:06:49;;;;;;;16.25;8.82;;;2.10;99.90;;;;;;5033418;28;20056;-70
2021/11/29 04:09:53;;;;;;;10.25;6.75;;;2.20;99.90;;;;;;5032688;28;20048;-70
2021/11/29 04:12:58;;;;;;;13.25;7.63;;;2.10;99.90;;;;;;5032202;28;20499;-71
2021/11/29 04:16:02;;;;;;;12.10;7.85;;;2.10;99.90;;;;;;5032541;28;20392;-71
2021/11/29 04:19:06;;;;;;;10.63;7.50;;;2.20;99.90;;;;;;5032765;28;20468;-70
2021/11/29 04:21:56;;;;;;;13.20;7.82;;;2.10;99.90;;;;;;5067588;28;20382;-49
2021/11/29 04:25:02;;;;;;;15.07;7.20;;;2.10;99.90;;;;;;5048792;28;20503;-48
2021/11/29 04:28:06;;;;;;;14.43;6.60;;;2.10;99.90;;;;;;5047660;28;20041;-48
2021/11/29 04:31:10;;;;;;;12.10;6.20;;;2.10;99.90;;;;;;5047385;28;20488;-48
2021/11/29 04:34:15;;;;;;;9.27;6.05;;;2.10;99.90;;;;;;5042071;28;20037;-48
2021/11/29 04:37:19;;;;;;;9.57;5.70;;;2.10;99.90;;;;;;5041024;28;20025;-50
2021/11/29 04:40:23;;;;;;;10.65;6.38;;;2.00;99.90;;;;;;5040966;28;20038;-49
2021/11/29 04:43:27;;;;;;;12.52;6.18;;;2.00;99.90;;;;;;5047745;28;20033;-49
2021/11/29 04:46:31;;;;;;;13.75;6.75;;;2.00;99.90;;;;;;5042364;28;20037;-50
2021/11/29 04:49:35;;;;;;;13.20;6.50;;;2.00;99.90;;;;;;5045165;28;20491;-48
2021/11/29 04:52:40;;;;;;;11.02;6.65;;;2.00;99.90;;;;;;5043583;28;20033;-48
2021/11/29 04:55:43;;;;;;;14.35;6.80;;;2.00;99.90;;;;;;5044155;28;20033;-49
2021/11/29 04:58:48;;;;;;;10.55;6.07;;;2.00;99.90;;;;;;5044456;28;20033;-49
2021/11/29 05:01:54;;;;;;;13.07;6.78;;;2.00;99.90;;;;;;5046129;28;20041;-48
2021/11/29 05:04:59;;;;;;;13.55;6.97;;;2.10;99.90;;;;;;5047460;28;20444;-50
2021/11/29 05:08:04;;;;;;;11.10;6.90;;;2.10;99.90;;;;;;5046852;28;20033;-48
2021/11/29 05:11:08;;;;;;;13.88;7.40;;;2.10;99.90;;;;;;5039104;28;20037;-48
2021/11/29 05:14:12;;;;;;;12.52;7.63;;;2.10;99.90;;;;;;5039446;28;20041;-49
2021/11/29 05:17:17;;;;;;;15.90;8.13;;;2.10;99.90;;;;;;5040096;28;20388;-48
2021/11/29 05:20:21;;;;;;;12.52;6.90;;;2.10;99.90;;;;;;5043892;28;20476;-49
2021/11/29 05:23:25;;;;;;;11.48;6.57;;;2.10;99.90;;;;;;5041565;28;20037;-48
2021/11/29 05:26:29;;;;;;;11.98;6.63;;;2.10;99.90;;;;;;5041434;28;20033;-48
2021/11/29 05:29:33;;;;;;;11.65;6.65;;;2.10;99.90;;;;;;5041945;28;20033;-49
2021/11/29 05:32:37;;;;;;;25.75;7.50;;;2.10;99.90;;;;;;5032629;28;20037;-49
2021/11/29 05:35:41;;;;;;;16.42;8.55;;;2.10;99.90;;;;;;5030031;28;20029;-48
2021/11/29 05:38:45;;;;;;;21.63;8.70;;;2.10;99.90;;;;;;5030416;28;20045;-49
2021/11/29 05:41:51;;;;;;;19.95;9.30;;;2.10;99.90;;;;;;5030631;28;20381;-48
2021/11/29 05:44:54;;;;;;;19.58;9.88;;;2.00;99.90;;;;;;5031077;28;20492;-48
2021/11/29 05:47:58;;;;;;;14.38;8.80;;;2.00;99.90;;;;;;5032979;28;20520;-48
2021/11/29 05:51:02;;;;;;;16.60;9.38;;;2.00;99.90;;;;;;5032964;28;20068;-48
2021/11/29 05:54:06;;;;;;;17.30;7.80;;;1.90;99.90;;;;;;5033011;28;20041;-50
2021/11/29 05:57:11;;;;;;;14.10;6.72;;;1.90;99.90;;;;;;5025348;28;20567;-48
2021/11/29 06:00:18;;;;;;;18.77;7.57;;;1.90;99.90;;;;;;5033144;28;20473;-48
2021/11/29 06:03:22;;;;;;;16.63;6.40;;;1.90;99.90;;;;;;5032187;28;20041;-48
2021/11/29 06:06:26;;;;;;;8.68;5.80;;;1.90;99.90;;;;;;5029137;28;20374;-49
2021/11/29 06:09:30;;;;;;;12.77;5.60;;;1.90;99.90;;;;;;5027299;28;20037;-50
2021/11/29 06:12:35;;;;;;;11.65;6.45;;;1.90;99.90;;;;;;5028241;28;20029;-48
2021/11/29 06:15:39;;;;;;;11.05;5.90;;;1.90;99.90;;;;;;5028754;28;20041;-48
2021/11/29 06:18:43;;;;;;;9.73;5.55;;;1.80;99.90;;;;;;5032015;28;20037;-48
2021/11/29 06:21:47;;;;;;;11.00;5.82;;;1.80;99.90;;;;;;5031811;28;20041;-48
2021/11/29 06:24:51;;;;;;;11.05;5.72;;;1.80;99.90;;;;;;5032470;28;20033;-48
2021/11/29 06:27:56;;;;;;;8.88;5.10;;;1.70;99.90;;;;;;5030565;28;20049;-48
2021/11/29 06:31:00;;;;;;;13.50;5.65;;;1.70;99.90;;;;;;5031415;28;20038;-48
2021/11/29 06:34:04;;;;;;;10.95;5.47;;;1.70;99.90;;;;;;5032113;28;20037;-48
2021/11/29 06:37:10;;;;;;;12.23;5.07;;;1.60;99.90;;;;;;5027839;28;20045;-49
2021/11/29 06:40:15;;;;;;;12.65;5.03;;;1.60;99.90;;;;;;5025082;28;20041;-48
2021/11/29 06:43:21;;;;;;;9.98;4.78;;;1.60;99.90;;;;;;5030529;28;20029;-49
2021/11/29 06:46:25;;;;;;;10.07;4.85;;;1.70;99.90;;;;;;5031852;28;20037;-49
2021/11/29 06:49:29;;;;;;;12.45;4.28;;;1.80;99.90;;;;;;5028835;28;20037;-48
2021/11/29 06:52:33;;;;;;;9.13;4.30;;;1.90;99.90;;;;;;5027244;28;20025;-49
2021/11/29 06:55:37;;;;;;;7.80;4.07;;;2.00;99.90;;;;;;5027821;28;20029;-49
2021/11/29 06:58:41;;;;;;;9.60;4.30;;;2.00;99.90;;;;;;5028087;28;20033;-48
2021/11/29 07:01:45;;;;;;;8.40;3.90;;;2.10;99.90;;;;;;5031453;28;20045;-48
2021/11/29 07:04:49;;;;;;;8.20;3.20;;;2.30;99.90;;;;;;5031270;28;20042;-48
2021/11/29 07:07:53;;;;;;;10.43;3.58;;;2.40;99.90;;;;;;5031390;28;20033;-48
2021/11/29 07:10:58;;;;;;;6.97;3.83;;;2.60;99.90;;;;;;5029946;28;20405;-49
2021/11/29 07:14:04;;;;;;;4.20;2.70;;;2.80;99.90;;;;;;5030508;28;20045;-49
2021/11/29 07:17:08;;;;;;;6.85;3.47;;;2.90;99.90;;;;;;5031545;28;20037;-49
2021/11/29 07:20:12;;;;;;;5.93;3.90;;;3.20;99.90;;;;;;5023269;28;20468;-49
2021/11/29 07:23:16;;;;;;;6.63;4.07;;;3.50;99.90;;;;;;5031046;28;20038;-48
2021/11/29 07:26:20;;;;;;;7.38;3.00;;;3.90;99.90;;;;;;5022835;28;20041;-49
2021/11/29 07:29:24;;;;;;;4.55;3.20;;;4.20;99.90;;;;;;5025009;28;20056;-49
2021/11/29 07:32:31;;;;;;;5.03;3.53;;;4.30;99.90;;;;;;5027487;28;20037;-49
2021/11/29 07:35:35;;;;;;;5.32;3.50;;;4.60;99.90;;;;;;5022206;28;20499;-49
2021/11/29 07:38:41;;;;;;;6.97;4.18;;;4.90;99.90;;;;;;5026349;28;20038;-49
2021/11/29 07:41:45;;;;;;;5.88;3.10;;;5.30;99.90;;;;;;5027690;28;20041;-49
2021/11/29 07:44:49;;;;;;;8.45;3.28;;;5.70;99.90;;;;;;5027759;28;20038;-49
2021/11/29 07:47:53;;;;;;;5.88;3.45;;;6.50;99.90;;;;;;5030881;28;20037;-49
2021/11/29 07:50:58;;;;;;;7.60;3.38;;;8.00;99.90;;;;;;5030902;28;20041;-49
2021/11/29 07:54:02;;;;;;;5.18;2.60;;;10.30;99.90;;;;;;5030584;28;20397;-52
2021/11/29 07:57:06;;;;;;;7.15;2.75;;;12.70;99.90;;;;;;5030783;28;20050;-50
2021/11/29 08:00:19;;;;;;;4.28;2.60;;;15.30;99.90;;;;;;5029349;28;20455;-54
2021/11/29 08:03:24;;;;;;;3.58;2.30;;;16.70;98.00;;;;;;5019107;28;20045;-50
2021/11/29 08:06:28;;;;;;;6.00;3.45;;;17.40;97.10;;;;;;5028145;28;20401;-50
2021/11/29 08:09:32;;;;;;;3.90;2.85;;;18.80;94.40;;;;;;5025480;28;20037;-50
2021/11/29 08:12:36;;;;;;;3.70;2.45;;;20.00;93.00;;;;;;5030094;28;20049;-51
2021/11/29 08:15:41;;;;;;;3.17;2.53;;;21.70;90.50;;;;;;5026684;28;20415;-48
2021/11/29 08:18:45;;;;;;;3.97;2.55;;;22.30;89.50;;;;;;5027815;28;20048;-49
2021/11/29 08:21:48;;;;;;;2.80;2.17;;;23.90;85.90;;;;;;5022619;28;20033;-48
2021/11/29 08:24:52;;;;;;;3.00;2.00;;;25.10;83.40;;;;;;5011057;28;20577;-50
2021/11/29 08:27:57;;;;;;;3.88;2.17;;;26.20;77.70;;;;;;5019770;28;20040;-49
2021/11/29 08:31:01;;;;;;;1.95;1.58;;;27.00;76.50;;;;;;5022570;28;20049;-51
2021/11/29 08:34:05;;;;;;;3.10;2.13;;;26.30;72.90;;;;;;5027487;28;20415;-52
2021/11/29 08:37:11;;;;;;;3.17;1.90;;;25.20;71.40;;;;;;5025855;28;20037;-50
2021/11/29 08:40:26;;;;;;;3.72;2.00;;;23.90;74.20;;;;;;5022577;28;20044;-50
2021/11/29 08:43:30;;;;;;;4.13;2.40;;;22.60;74.80;;;;;;5025765;28;20404;-50
2021/11/29 08:46:34;;;;;;;2.95;2.40;;;20.20;76.60;;;;;;5031271;28;20046;-50
2021/11/29 08:49:39;;;;;;;4.07;2.65;;;17.60;81.10;;;;;;5017795;28;20038;-50
2021/11/29 08:52:44;;;;;;;3.55;2.58;;;15.60;85.90;;;;;;5022952;28;20041;-50
2021/11/29 08:55:49;;;;;;;5.28;2.90;;;14.00;90.90;;;;;;5026665;28;20049;-50
2021/11/29 08:58:54;;;;;;;3.28;2.42;;;13.50;91.50;;;;;;5028017;28;20550;-50
2021/11/29 09:01:57;;;;;;;4.90;3.05;;;12.60;92.80;;;;;;5028580;28;20064;-49
2021/11/29 09:05:02;;;;;;;4.78;3.22;;;11.80;94.60;;;;;;5028579;28;20029;-51
2021/11/29 09:08:06;;;;;;;4.22;3.00;;;11.50;96.60;;;;;;5030535;28;20034;-49
2021/11/29 09:11:10;;;;;;;6.45;3.10;;;11.90;96.40;;;;;;5031885;28;20029;-50
2021/11/29 09:14:14;;;;;;;3.85;2.65;;;12.90;96.00;;;;;;5028537;28;20041;-50
2021/11/29 09:17:18;;;;;;;4.53;2.90;;;14.80;93.50;;;;;;5026398;28;20042;-55
2021/11/29 09:20:25;;;;;;;3.10;2.15;;;17.10;91.80;;;;;;5030531;28;20049;-51
2021/11/29 09:23:30;;;;;;;6.95;2.42;;;19.00;86.80;;;;;;5031001;28;20033;-49
2021/11/29 09:26:34;;;;;;;3.70;2.25;;;19.70;83.80;;;;;;5029137;28;20036;-50
2021/11/29 09:29:38;;;;;;;5.28;1.90;;;20.40;82.90;;;;;;5025661;28;20038;-50
2021/11/29 09:32:42;;;;;;;2.80;1.85;;;21.40;80.60;;;;;;5027239;28;20052;-53
2021/11/29 09:35:46;;;;;;;2.50;1.77;;;21.60;77.30;;;;;;5026646;28;20071;-51
2021/11/29 09:38:50;;;;;;;3.53;1.98;;;20.30;79.10;;;;;;5029722;28;20041;-50
2021/11/29 09:41:54;;;;;;;2.40;1.63;;;19.50;81.40;;;;;;5025015;28;20045;-50
2021/11/29 09:45:00;;;;;;;3.75;2.00;;;19.80;79.60;;;;;;5029915;28;20044;-51
2021/11/29 09:48:04;;;;;;;2.90;1.70;;;18.40;80.00;;;;;;5031130;22;20511;-71
2021/11/29 09:51:10;;;;;;;2.88;1.85;;;18.70;78.80;;;;;;5028916;28;20049;-70
2021/11/29 09:54:16;;;;;;;3.70;1.90;;;18.80;81.00;;;;;;5030900;28;20033;-71
2021/11/29 09:57:21;;;;;;;3.60;2.05;;;18.20;82.70;;;;;;5027862;28;20045;-71
2021/11/29 10:00:29;;;;;;;3.08;1.85;;;18.40;82.20;;;;;;5032218;28;20042;-71
2021/11/29 10:03:34;;;;;;;2.22;1.77;;;19.00;80.10;;;;;;5029675;28;20040;-71
2021/11/29 10:06:38;;;;;;;2.55;1.67;;;19.80;75.50;;;;;;5032610;28;20586;-70
2021/11/29 10:09:42;;;;;;;3.08;1.67;;;20.70;77.00;;;;;;5030190;28;20037;-71
2021/11/29 10:12:48;;;;;;;3.33;1.60;;;21.60;77.00;;;;;;5030645;28;20052;-72
2021/11/29 10:15:53;;;;;;;4.22;1.60;;;20.10;75.50;;;;;;5033539;28;20033;-72
2021/11/29 10:18:57;;;;;;;2.55;1.90;;;20.70;78.40;;;;;;5028749;28;20041;-72
2021/11/29 10:22:18;;;;;;;4.70;1.80;;;22.10;77.20;;;;;;5032573;28;20052;-71
2021/11/29 10:25:22;;;;;;;3.03;1.60;;;23.10;75.10;;;;;;5029476;28;20034;-71
2021/11/29 10:28:39;;;;;;;3.08;1.70;;;23.10;73.60;;;;;;5030373;28;20040;-70
2021/11/29 10:31:49;;;;;;;1.73;1.35;;;22.70;74.30;;;;;;5030218;28;20046;-70
2021/11/29 10:34:55;;;;;;;2.80;1.58;;;23.30;73.30;;;;;;5030601;28;20395;-71
2021/11/29 10:38:00;;;;;;;1.60;1.38;;;23.00;74.60;;;;;;5029587;28;20041;-70
2021/11/29 10:41:05;;;;;;;2.70;1.27;;;23.40;72.90;;;;;;5029925;28;20037;-71
2021/11/29 10:44:17;;;;;;;2.00;1.10;;;23.40;71.70;;;;;;5031011;28;20032;-71
2021/11/29 10:47:25;;;;;;;2.03;1.17;;;23.10;72.00;;;;;;5026633;28;20033;-70
2021/11/29 10:50:29;;;;;;;1.45;0.70;;;22.50;71.50;;;;;;5031054;28;20041;-71
2021/11/29 10:53:48;;;;;;;1.50;1.05;;;22.20;72.70;;;;;;5028483;28;20042;-71
2021/11/29 10:56:56;;;;;;;1.40;1.05;;;21.80;74.20;;;;;;5029727;28;20100;-71
2021/11/29 11:00:06;;;;;;;0.95;0.80;;;22.80;73.60;;;;;;5030385;28;20049;-69
2021/11/29 11:03:11;;;;;;;1.40;1.00;;;22.80;72.90;;;;;;5030799;28;20048;-70
2021/11/29 11:06:15;;;;;;;1.45;1.05;;;23.00;72.70;;;;;;5027632;28;20036;-70
2021/11/29 11:09:23;;;;;;;1.23;0.95;;;23.50;72.60;;;;;;5029768;28;20043;-70
2021/11/29 11:12:31;;;;;;;1.77;0.93;;;24.30;70.30;;;;;;5030546;28;20045;-70
2021/11/29 11:15:43;;;;;;;1.73;0.80;;;24.00;69.80;;;;;;5028250;28;20044;-70
2021/11/29 11:18:47;;;;;;;1.02;0.88;;;24.00;70.10;;;;;;5030210;28;20041;-67
2021/11/29 11:21:54;;;;;;;3.75;0.82;;;24.30;69.10;;;;;;5030090;28;20125;-69
2021/11/29 11:25:01;;;;;;;5.55;0.95;;;24.50;69.10;;;;;;5032352;28;20037;-68
2021/11/29 11:28:09;;;;;;;1.95;0.88;;;25.10;69.10;;;;;;5031734;28;20056;-69
2021/11/29 11:31:26;;;;;;;1.58;0.75;;;24.90;68.00;;;;;;5031797;28;20495;-70
2021/11/29 11:34:35;;;;;;;1.73;0.90;;;24.10;68.30;;;;;;5025004;28;20037;-70
2021/11/29 11:37:43;;;;;;;0.65;0.40;;;24.50;67.30;;;;;;5023083;28;20051;-71
2021/11/29 11:40:50;;;;;;;1.45;0.73;;;25.40;67.60;;;;;;5029005;28;20046;-69
2021/11/29 11:43:55;;;;;;;2.80;0.40;;;25.60;66.10;;;;;;5030456;28;20491;-71
2021/11/29 11:47:00;;;;;;;0.88;0.60;;;26.00;65.80;;;;;;5036233;28;20045;-68
2021/11/29 11:50:08;;;;;;;1.05;0.50;;;27.10;65.70;;;;;;5035010;28;20037;-71
2021/11/29 11:53:12;;;;;;;1.60;0.60;;;25.90;63.90;;;;;;5033113;28;20040;-68
2021/11/29 11:56:16;;;;;;;1.63;0.60;;;22.60;67.30;;;;;;5026140;28;20042;-70
2021/11/29 11:59:26;;;;;;;1.80;0.70;;;19.50;74.20;;;;;;5023729;28;20056;-71
2021/11/29 12:02:43;;;;;;;2.63;0.70;;;17.10;78.20;;;;;;5029338;28;20052;-70
2021/11/29 12:05:53;;;;;;;2.30;0.80;;;15.30;81.70;;;;;;5028857;28;20041;-70
2021/11/29 12:09:01;;;;;;;1.88;0.90;;;14.10;84.10;;;;;;5029881;28;20081;-70
2021/11/29 12:12:06;;;;;;;1.40;0.90;;;12.70;88.80;;;;;;5024584;28;20381;-71
2021/11/29 12:15:17;;;;;;;3.00;0.80;;;12.00;90.30;;;;;;5022893;28;20058;-70
2021/11/29 12:18:33;;;;;;;1.08;0.90;;;11.30;92.10;;;;;;5023167;28;20056;-70
2021/11/29 12:21:39;;;;;;;1.35;1.00;;;11.30;93.20;;;;;;5030429;28;20034;-70
2021/11/29 12:25:03;;;;;;;1.10;0.70;;;11.40;93.80;;;;;;5031387;28;20497;-70
2021/11/29 12:28:07;;;;;;;1.30;0.68;;;11.70;94.30;;;;;;5028453;28;20033;-70
2021/11/29 12:31:38;;;;;;;0.90;0.60;;;11.80;93.80;;;;;;5024985;28;20029;-70
2021/11/29 12:34:44;;;;;;;1.13;0.77;;;11.80;94.00;;;;;;5027218;28;20056;-70
2021/11/29 12:38:01;;;;;;;0.80;0.68;;;12.20;93.30;;;;;;5026836;28;20050;-70
2021/11/29 12:41:06;;;;;;;0.85;0.75;;;13.30;92.00;;;;;;5029262;28;20033;-71
2021/11/29 12:44:10;;;;;;;1.10;0.60;;;14.60;90.50;;;;;;5029660;28;20048;-70
2021/11/29 12:47:25;;;;;;;1.00;0.60;;;16.20;88.60;;;;;;5028146;28;20057;-70
2021/11/29 12:50:49;;;;;;;2.72;0.68;;;17.70;85.70;;;;;;5027287;28;20041;-70
2021/11/29 12:53:53;;;;;;;1.30;0.60;;;17.60;82.90;;;;;;5015870;28;20042;-70
2021/11/29 12:57:34;;;;;;;1.23;0.68;;;16.00;84.30;;;;;;5023235;28;20377;-70
2021/11/29 13:00:41;;;;;;;0.90;0.70;;;14.30;88.60;;;;;;5030309;28;20501;-70
2021/11/29 13:03:47;;;;;;;1.00;0.80;;;13.70;90.00;;;;;;5034626;28;20045;-70
2021/11/29 13:06:54;;;;;;;3.05;1.05;;;13.10;90.80;;;;;;5022362;28;20045;-71
2021/11/29 13:09:58;;;;;;;1.75;0.80;;;13.60;90.70;;;;;;5022621;28;20460;-70
2021/11/29 13:13:24;;;;;;;2.30;0.88;;;13.50;91.10;;;;;;5027676;28;20041;-69
2021/11/29 13:16:39;;;;;;;1.33;1.13;;;12.20;91.70;;;;;;5030531;28;20048;-70
2021/11/29 13:19:44;;;;;;;1.60;0.93;;;11.30;92.80;;;;;;5031654;28;20388;-70
2021/11/29 13:22:48;;;;;;;2.13;1.23;;;10.30;94.10;;;;;;5015079;28;20038;-70
2021/11/29 13:25:52;;;;;;;3.15;1.52;;;9.70;95.90;;;;;;5015186;28;20033;-70
2021/11/29 13:29:01;;;;;;;2.83;1.33;;;9.40;96.70;;;;;;5019403;28;20612;-69
2021/11/29 13:32:14;;;;;;;3.42;1.50;;;9.20;97.40;;;;;;5026076;28;20034;-69
2021/11/29 13:35:18;;;;;;;3.47;1.63;;;9.00;97.50;;;;;;5029624;28;20029;-70
2021/11/29 13:38:25;;;;;;;3.30;1.50;;;8.80;98.10;;;;;;5023201;28;20046;-69
2021/11/29 13:41:29;;;;;;;3.95;1.60;;;8.70;99.20;;;;;;5024635;28;20389;-70
2021/11/29 13:44:34;;;;;;;2.67;1.60;;;9.00;99.30;;;;;;5024167;28;20041;-69
2021/11/29 13:47:47;;;;;;;2.47;1.45;;;9.40;98.70;;;;;;5026437;28;20041;-69
2021/11/29 13:50:55;;;;;;;4.03;1.58;;;9.80;98.30;;;;;;5022308;28;20041;-69
2021/11/29 13:54:09;;;;;;;4.55;1.52;;;9.90;97.50;;;;;;5028468;28;20037;-69
2021/11/29 13:57:13;;;;;;;2.95;1.40;;;10.00;98.20;;;;;;5013976;28;20362;-70
2021/11/29 14:00:23;;;;;;;4.20;1.35;;;9.80;98.30;;;;;;5031027;28;20483;-70
2021/11/29 14:03:29;;;;;;;2.58;1.35;;;9.40;98.20;;;;;;5019435;28;20045;-69
2021/11/29 14:06:34;;;;;;;2.33;1.10;;;9.00;99.00;;;;;;5016340;28;20326;-70
2021/11/29 14:09:40;;;;;;;2.75;1.27;;;9.00;99.40;;;;;;5014069;28;20469;-70
2021/11/29 14:12:47;;;;;;;2.53;1.08;;;8.50;99.90;;;;;;5028704;28;20053;-70
2021/11/29 14:15:58;;;;;;;2.75;1.23;;;8.10;99.90;;;;;;5025051;28;20697;-70
2021/11/29 14:19:11;;;;;;;2.05;1.25;;;7.80;99.90;;;;;;5026102;28;20041;-70
2021/11/29 14:22:15;;;;;;;1.55;1.27;;;7.70;99.90;;;;;;5033037;28;20045;-68
2021/11/29 14:25:20;;;;;;;1.35;0.82;;;7.60;99.90;;;;;;5021728;28;20042;-69
2021/11/29 14:28:24;;;;;;;0.90;0.65;;;7.90;99.90;;;;;;5013077;28;20350;-70
2021/11/29 14:31:28;;;;;;;0.93;0.70;;;8.80;99.90;;;;;;5027822;28;20029;-69
2021/11/29 14:34:37;;;;;;;0.50;0.50;;;9.30;99.90;;;;;;5019319;28;20033;-70
2021/11/29 14:37:41;;;;;;;1.23;0.80;;;9.60;99.90;;;;;;5031940;28;20033;-69
2021/11/29 14:40:45;;;;;;;1.05;0.70;;;9.40;99.90;;;;;;5028529;28;20037;-70
2021/11/29 14:44:07;;;;;;;1.92;1.17;;;8.60;99.90;;;;;;5031552;28;20037;-70
2021/11/29 14:47:15;;;;;;;1.20;0.70;;;8.20;99.90;;;;;;5030960;28;20042;-69
2021/11/29 14:50:29;;;;;;;0.80;0.75;;;7.70;99.90;;;;;;5017271;28;20041;-70
2021/11/29 14:53:33;;;;;;;1.80;1.20;;;6.90;99.90;;;;;;5013676;28;20046;-70
2021/11/29 14:56:40;;;;;;;1.13;0.98;;;6.50;99.90;;;;;;5013378;28;20042;-70
2021/11/29 14:59:44;;;;;;;0.77;0.60;;;6.20;99.90;;;;;;5012796;28;20038;-69
2021/11/29 15:03:00;;;;;;;0.90;0.80;;;5.90;99.90;;;;;;5020742;28;20053;-70
2021/11/29 15:06:09;;;;;;;1.33;0.80;;;5.70;99.90;;;;;;5012557;28;20646;-69
2021/11/29 15:09:20;;;;;;;2.85;0.80;;;5.50;99.90;;;;;;5012384;28;20037;-69
2021/11/29 15:12:32;;;;;;;2.38;0.90;;;5.40;99.90;;;;;;5030929;28;20033;-70
2021/11/29 15:15:37;;;;;;;1.30;1.10;;;5.40;99.90;;;;;;5032956;28;20361;-69
2021/11/29 15:18:41;;;;;;;2.65;1.80;;;5.50;99.90;;;;;;5030973;28;20041;-69
2021/11/29 15:21:52;;;;;;;1.60;1.20;;;5.60;99.90;;;;;;5032237;28;20037;-69
2021/11/29 15:25:04;;;;;;;2.20;1.13;;;5.70;99.90;;;;;;5014818;28;20042;-69
2021/11/29 15:28:12;;;;;;;2.00;1.50;;;6.00;99.90;;;;;;5020930;28;20038;-70
2021/11/29 15:31:29;;;;;;;3.72;1.13;;;5.90;99.90;;;;;;5024259;28;20038;-70
2021/11/29 15:34:32;;;;;;;1.50;1.30;;;5.50;99.90;;;;;;5013695;28;20046;-69
2021/11/29 15:37:41;;;;;;;2.53;1.80;;;5.10;99.90;;;;;;5031738;28;20045;-69
2021/11/29 15:40:55;;;;;;;2.63;1.60;;;4.70;99.90;;;;;;5031833;28;20041;-69
2021/11/29 15:44:02;;;;;;;4.15;2.35;;;4.50;99.90;;;;;;5031879;28;20468;-69
2021/11/29 15:47:07;;;;;;;4.43;2.15;;;4.30;99.90;;;;;;5032060;28;20192;-69
2021/11/29 15:50:12;;;;;;;3.03;2.33;;;4.20;99.90;;;;;;5019826;28;20045;-69
2021/11/29 15:53:16;;;;;;;3.05;1.88;;;4.00;99.90;;;;;;5031400;28;20037;-69
2021/11/29 15:56:22;;;;;;;2.97;2.00;;;4.00;99.90;;;;;;5032240;28;20476;-69
2021/11/29 15:59:26;;;;;;;2.40;1.85;;;3.90;99.90;;;;;;5031670;28;20067;-69
2021/11/29 16:02:30;;;;;;;3.95;2.17;;;3.90;99.90;;;;;;5031904;28;20041;-69
2021/11/29 16:05:34;;;;;;;2.90;2.20;;;3.80;99.90;;;;;;5032035;28;20041;-70
2021/11/29 16:08:39;;;;;;;3.95;2.30;;;3.80;99.90;;;;;;5031370;28;20037;-69